Time;durP1;ratioP1;P1;durP2;ratioP2;P2;SDS_P1;SDS_P2;PMS_P1;PMS_P2;Temp;Humidity;BMP_temperature;BMP_pressure;BME280_temperature;BME280_humidity;BME280_pressure;Samples;Min_cycle;Max_cycle;Signal;HPM_P1;HPM_P2
2021/03/27 00:01:08;;;;;;;8.17;4.50;;;7.30;90.50;;;;;;5032462;28;20052;-78
2021/03/27 00:03:37;;;;;;;6.60;3.80;;;7.30;90.70;;;;;;5015795;28;20018;-79
2021/03/27 00:06:42;;;;;;;6.70;3.93;;;7.30;90.70;;;;;;5015575;28;20075;-78
2021/03/27 00:09:49;;;;;;;7.00;2.83;;;7.30;90.60;;;;;;5015298;28;20030;-79
2021/03/27 00:12:24;;;;;;;5.47;3.00;;;7.20;90.60;;;;;;4965850;28;20071;-78
2021/03/27 00:15:02;;;;;;;4.57;2.60;;;7.20;90.60;;;;;;5032973;28;20397;-78
2021/03/27 00:17:33;;;;;;;4.57;1.77;;;7.20;90.70;;;;;;5033017;28;20029;-78
2021/03/27 00:20:07;;;;;;;3.20;1.57;;;7.10;91.00;;;;;;5015123;28;20422;-78
2021/03/27 00:22:48;;;;;;;5.13;1.50;;;7.10;91.00;;;;;;5015196;28;20061;-78
2021/03/27 00:25:29;;;;;;;3.00;1.10;;;7.10;90.90;;;;;;5014966;28;20367;-78
2021/03/27 00:28:02;;;;;;;3.13;0.80;;;7.00;91.00;;;;;;5032844;28;20108;-78
2021/03/27 00:30:47;;;;;;;4.00;0.70;;;7.00;91.10;;;;;;5032758;28;20035;-77
2021/03/27 00:33:13;;;;;;;2.43;0.77;;;7.00;91.40;;;;;;5014886;28;20025;-78
2021/03/27 00:35:52;;;;;;;3.90;0.50;;;6.90;91.10;;;;;;5015054;28;20112;-77
2021/03/27 00:38:21;;;;;;;2.77;0.50;;;7.00;91.10;;;;;;5033142;28;20051;-78
2021/03/27 00:40:49;;;;;;;1.90;0.50;;;7.00;91.00;;;;;;5014816;28;20032;-78
2021/03/27 00:43:27;;;;;;;2.70;0.50;;;6.90;90.90;;;;;;5032989;28;20030;-77
2021/03/27 00:45:56;;;;;;;1.27;0.50;;;7.00;90.80;;;;;;5032857;28;20497;-80
2021/03/27 00:48:31;;;;;;;0.73;0.33;;;7.00;90.80;;;;;;5032791;28;20083;-77
2021/03/27 00:51:05;;;;;;;1.10;0.30;;;7.00;90.80;;;;;;5014935;28;20021;-77
2021/03/27 00:53:48;;;;;;;3.35;0.60;;;6.90;90.80;;;;;;5032231;28;20038;-77
2021/03/27 00:56:19;;;;;;;2.20;0.37;;;7.00;90.80;;;;;;5012866;28;20064;-78
2021/03/27 00:58:50;;;;;;;2.20;0.40;;;6.90;90.80;;;;;;5035837;28;20060;-77
2021/03/27 01:01:19;;;;;;;1.43;0.60;;;7.00;90.80;;;;;;5036744;28;20045;-78
2021/03/27 01:03:52;;;;;;;3.23;0.90;;;7.00;90.80;;;;;;5036477;28;20049;-78
2021/03/27 01:06:30;;;;;;;3.97;0.77;;;7.00;91.00;;;;;;5036545;28;20054;-77
2021/03/27 01:08:58;;;;;;;4.23;1.20;;;7.00;91.20;;;;;;5036708;28;20140;-78
2021/03/27 01:11:50;;;;;;;3.63;1.30;;;7.00;91.10;;;;;;5018809;28;20501;-78
2021/03/27 01:14:30;;;;;;;6.90;2.17;;;7.00;91.30;;;;;;5036486;28;20500;-78
2021/03/27 01:17:00;;;;;;;7.50;3.20;;;7.00;91.30;;;;;;5036240;28;20053;-79
2021/03/27 01:19:41;;;;;;;8.20;3.67;;;6.90;91.40;;;;;;5036275;28;20028;-79
2021/03/27 01:22:10;;;;;;;6.77;3.63;;;7.00;91.30;;;;;;5018673;28;20026;-78
2021/03/27 01:24:37;;;;;;;10.67;5.33;;;6.90;91.40;;;;;;5017882;28;20013;-78
2021/03/27 01:27:17;;;;;;;7.60;3.83;;;6.90;91.40;;;;;;5018835;28;20022;-78
2021/03/27 01:29:53;;;;;;;9.70;4.27;;;6.90;91.40;;;;;;5035832;28;20037;-78
2021/03/27 01:32:30;;;;;;;10.00;4.20;;;7.00;91.50;;;;;;5036086;28;20035;-79
2021/03/27 01:35:01;;;;;;;8.90;4.80;;;7.00;91.60;;;;;;5018709;28;20450;-78
2021/03/27 01:37:51;;;;;;;12.17;5.20;;;6.90;91.80;;;;;;5036110;28;20057;-78
2021/03/27 01:40:38;;;;;;;12.40;4.77;;;7.00;91.50;;;;;;5018069;28;20104;-79
2021/03/27 01:43:24;;;;;;;12.03;5.60;;;7.00;91.50;;;;;;5018015;28;20032;-79
2021/03/27 01:46:19;;;;;;;10.77;5.83;;;7.00;91.60;;;;;;5017896;28;20083;-78
2021/03/27 01:48:56;;;;;;;13.60;7.33;;;7.00;91.60;;;;;;4930462;28;20090;-79
2021/03/27 01:51:55;;;;;;;16.07;8.00;;;7.00;91.60;;;;;;5035738;28;20101;-79
2021/03/27 01:54:47;;;;;;;18.23;9.13;;;7.00;91.60;;;;;;4993664;28;20095;-77
2021/03/27 01:57:25;;;;;;;18.90;10.10;;;7.00;91.60;;;;;;5022440;28;20478;-77
2021/03/27 02:00:00;;;;;;;17.40;10.33;;;7.00;91.60;;;;;;5035567;28;20496;-78
2021/03/27 02:03:14;;;;;;;21.80;11.20;;;7.00;91.70;;;;;;5035739;28;20053;-76
2021/03/27 02:05:50;;;;;;;16.30;10.20;;;7.00;91.70;;;;;;5004670;28;20041;-79
2021/03/27 02:08:23;;;;;;;17.43;10.63;;;6.90;91.80;;;;;;5034926;28;20565;-78
2021/03/27 02:10:57;;;;;;;16.23;11.00;;;6.90;91.70;;;;;;5017184;28;20201;-79
2021/03/27 02:13:28;;;;;;;16.70;10.60;;;7.00;91.70;;;;;;5035154;28;20033;-79
2021/03/27 02:16:30;;;;;;;18.33;11.10;;;7.00;91.70;;;;;;5017258;28;20112;-78
2021/03/27 02:19:02;;;;;;;21.77;10.57;;;6.90;91.60;;;;;;5035341;28;20075;-77
2021/03/27 02:21:49;;;;;;;21.33;11.27;;;6.90;91.50;;;;;;5017315;28;20124;-77
2021/03/27 02:24:45;;;;;;;19.17;10.17;;;6.90;91.40;;;;;;5016710;28;20053;-78
2021/03/27 02:27:39;;;;;;;21.40;11.57;;;6.90;91.40;;;;;;5017448;28;20029;-79
2021/03/27 02:30:12;;;;;;;23.37;12.47;;;6.90;91.40;;;;;;5015436;28;20048;-77
2021/03/27 02:32:43;;;;;;;20.37;11.17;;;6.90;91.60;;;;;;5032618;28;20112;-78
2021/03/27 02:35:27;;;;;;;18.07;10.03;;;6.90;91.60;;;;;;5033271;28;20060;-78
2021/03/27 02:38:04;;;;;;;16.88;10.02;;;6.90;91.80;;;;;;5034006;28;20234;-77
2021/03/27 02:40:40;;;;;;;18.03;11.10;;;6.80;91.70;;;;;;5033866;28;20025;-77
2021/03/27 02:43:22;;;;;;;19.93;10.93;;;6.70;91.80;;;;;;5032737;28;20057;-77
2021/03/27 02:46:12;;;;;;;18.63;10.23;;;6.80;91.90;;;;;;5034953;28;20071;-78
2021/03/27 02:49:05;;;;;;;17.77;10.23;;;6.80;91.80;;;;;;5033264;28;20037;-78
2021/03/27 02:51:42;;;;;;;19.60;10.33;;;6.70;92.00;;;;;;5033349;28;20021;-78
2021/03/27 02:54:48;;;;;;;16.90;8.87;;;6.70;91.80;;;;;;5034299;28;20079;-78
2021/03/27 02:57:49;;;;;;;16.10;8.90;;;6.70;91.80;;;;;;5012296;28;20092;-76
2021/03/27 03:00:23;;;;;;;15.83;9.27;;;6.60;91.80;;;;;;5016530;28;20515;-76
2021/03/27 03:03:04;;;;;;;;;;;6.60;91.80;;;;;;5017428;28;20037;-77
2021/03/27 03:05:51;;;;;;;17.80;10.03;;;6.50;91.80;;;;;;5016515;28;19969;-77
2021/03/27 03:08:24;;;;;;;16.60;9.57;;;6.50;91.90;;;;;;5034295;28;20064;-76
2021/03/27 03:10:58;;;;;;;19.00;9.63;;;6.40;91.90;;;;;;5016347;28;20053;-77
2021/03/27 03:13:34;;;;;;;20.03;9.37;;;6.40;91.90;;;;;;5034298;28;20540;-78
2021/03/27 03:16:21;;;;;;;16.73;9.10;;;6.30;92.00;;;;;;5016604;28;20025;-78
2021/03/27 03:19:09;;;;;;;21.67;9.13;;;6.30;92.00;;;;;;5034076;28;20976;-78
2021/03/27 03:21:56;;;;;;;18.13;8.83;;;6.20;92.10;;;;;;5032867;28;20057;-78
2021/03/27 03:24:27;;;;;;;17.47;8.87;;;6.20;92.10;;;;;;5015487;28;20120;-77
2021/03/27 03:27:29;;;;;;;16.17;8.33;;;6.20;92.40;;;;;;5033822;28;20021;-77
2021/03/27 03:30:09;;;;;;;20.50;8.20;;;6.20;92.40;;;;;;5016257;28;20091;-77
2021/03/27 03:32:40;;;;;;;16.87;7.97;;;6.20;92.40;;;;;;5016273;28;20030;-77
2021/03/27 03:35:09;;;;;;;14.57;7.77;;;6.20;92.40;;;;;;5033424;28;20032;-77
2021/03/27 03:37:54;;;;;;;21.17;8.80;;;6.30;92.40;;;;;;5016018;28;20462;-77
2021/03/27 03:40:31;;;;;;;19.50;8.13;;;6.30;92.50;;;;;;5033725;28;20075;-77
2021/03/27 03:43:06;;;;;;;23.57;9.93;;;6.30;92.50;;;;;;5015388;28;20025;-78
2021/03/27 03:45:55;;;;;;;17.20;8.53;;;6.40;92.60;;;;;;5033878;28;20021;-77
2021/03/27 03:48:42;;;;;;;22.30;9.67;;;6.40;92.50;;;;;;5015798;28;20048;-78
2021/03/27 03:51:29;;;;;;;20.10;10.00;;;6.40;92.50;;;;;;5015692;28;20029;-77
2021/03/27 03:54:05;;;;;;;19.90;10.33;;;6.50;92.50;;;;;;5031678;28;20025;-78
2021/03/27 03:56:57;;;;;;;19.40;10.40;;;6.50;92.40;;;;;;5033421;28;20032;-77
2021/03/27 03:59:27;;;;;;;29.13;11.53;;;6.50;92.40;;;;;;5004287;28;20029;-77
2021/03/27 04:02:05;;;;;;;20.30;10.27;;;6.50;92.30;;;;;;5032111;28;20022;-78
2021/03/27 04:04:39;;;;;;;23.77;11.20;;;6.50;92.30;;;;;;5032035;28;20021;-78
2021/03/27 04:07:09;;;;;;;20.70;9.80;;;6.50;92.30;;;;;;5032750;28;20032;-78
2021/03/27 04:09:40;;;;;;;23.60;10.53;;;6.50;92.20;;;;;;5015719;28;20441;-78
2021/03/27 04:12:14;;;;;;;25.33;10.53;;;6.50;92.20;;;;;;5033441;28;20025;-78
2021/03/27 04:14:52;;;;;;;22.30;10.77;;;6.50;92.20;;;;;;5015154;28;20546;-77
2021/03/27 04:17:26;;;;;;;19.60;10.50;;;6.50;92.20;;;;;;5031568;28;20036;-78
2021/03/27 04:20:00;;;;;;;23.70;10.37;;;6.50;92.10;;;;;;5032924;28;20033;-78
2021/03/27 04:22:35;;;;;;;24.90;9.73;;;6.60;92.20;;;;;;5031902;28;20026;-77
2021/03/27 04:25:20;;;;;;;23.00;10.87;;;6.50;92.10;;;;;;5032305;28;20029;-78
2021/03/27 04:28:04;;;;;;;24.30;9.30;;;6.50;92.10;;;;;;5015286;28;20458;-78
2021/03/27 04:30:36;;;;;;;18.13;8.18;;;6.60;92.10;;;;;;5015063;28;20379;-78
2021/03/27 04:33:19;;;;;;;20.77;8.97;;;6.50;92.10;;;;;;5014788;28;20036;-77
2021/03/27 04:35:54;;;;;;;19.13;8.07;;;6.50;92.10;;;;;;5032767;28;20022;-77
2021/03/27 04:39:03;;;;;;;20.83;9.77;;;6.50;92.00;;;;;;5015369;28;20063;-77
2021/03/27 04:41:41;;;;;;;21.73;8.80;;;6.50;92.10;;;;;;5031814;28;20037;-77
2021/03/27 04:44:25;;;;;;;24.53;8.53;;;6.50;92.10;;;;;;5032951;28;20082;-77
2021/03/27 04:46:53;;;;;;;23.77;7.95;;;6.50;92.00;;;;;;5015093;28;20074;-79
2021/03/27 04:49:33;;;;;;;20.53;7.70;;;6.40;92.00;;;;;;5015285;28;20033;-79
2021/03/27 04:52:33;;;;;;;18.53;7.70;;;6.50;92.00;;;;;;5014924;28;20056;-78
2021/03/27 04:55:27;;;;;;;21.13;7.53;;;6.50;92.00;;;;;;5031418;28;20128;-78
2021/03/27 04:58:19;;;;;;;21.92;6.57;;;6.50;91.90;;;;;;5032583;28;20044;-78
2021/03/27 05:01:11;;;;;;;15.73;6.27;;;6.50;91.80;;;;;;5030749;28;20048;-78
2021/03/27 05:03:47;;;;;;;19.80;6.27;;;6.50;91.80;;;;;;5048535;28;20039;-78
2021/03/27 05:06:30;;;;;;;18.17;6.57;;;6.50;91.70;;;;;;5049786;28;20021;-78
2021/03/27 05:09:34;;;;;;;21.92;5.50;;;6.70;91.60;;;;;;5052355;28;20149;-78
2021/03/27 05:12:05;;;;;;;17.07;5.47;;;6.60;91.50;;;;;;5052458;28;20470;-77
2021/03/27 05:14:43;;;;;;;21.83;5.33;;;6.60;91.50;;;;;;5030920;28;20029;-78
2021/03/27 05:17:45;;;;;;;15.33;5.53;;;6.60;91.50;;;;;;5043458;28;20071;-78
2021/03/27 05:20:23;;;;;;;11.33;4.77;;;6.70;91.50;;;;;;5052252;28;20448;-78
2021/03/27 05:22:55;;;;;;;18.10;4.47;;;6.70;91.60;;;;;;5032544;28;20049;-78
2021/03/27 05:25:47;;;;;;;11.40;3.27;;;6.70;92.20;;;;;;5051915;28;20025;-78
2021/03/27 05:28:46;;;;;;;10.47;2.27;;;6.60;92.40;;;;;;5017581;28;20116;-78
2021/03/27 05:31:33;;;;;;;9.63;2.63;;;6.30;92.70;;;;;;5052018;28;20528;-78
2021/03/27 05:34:56;;;;;;;15.80;2.50;;;6.10;93.00;;;;;;5052240;28;20033;-79
2021/03/27 05:37:39;;;;;;;9.53;2.80;;;6.00;93.40;;;;;;4991016;28;20121;-78
2021/03/27 05:40:23;;;;;;;11.67;3.33;;;5.80;93.70;;;;;;4990768;28;20042;-79
2021/03/27 05:43:10;;;;;;;16.77;3.35;;;5.70;94.00;;;;;;5014644;28;20124;-78
2021/03/27 05:45:57;;;;;;;13.90;3.53;;;5.60;94.10;;;;;;5054865;28;20096;-77
2021/03/27 05:48:59;;;;;;;14.97;3.37;;;5.60;94.30;;;;;;5055419;28;20508;-78
2021/03/27 05:52:03;;;;;;;14.90;3.83;;;5.50;94.40;;;;;;5055396;28;20497;-78
2021/03/27 05:54:41;;;;;;;22.60;4.30;;;5.50;94.60;;;;;;5001397;28;20033;-78
2021/03/27 05:57:25;;;;;;;11.43;3.13;;;5.50;94.80;;;;;;5047455;28;20108;-78
2021/03/27 06:00:21;;;;;;;16.35;3.90;;;5.50;94.80;;;;;;5055574;28;20024;-77
2021/03/27 06:03:16;;;;;;;19.20;3.93;;;5.50;94.90;;;;;;5055403;28;20025;-78
2021/03/27 06:06:51;;;;;;;21.27;3.90;;;5.60;95.00;;;;;;5054968;28;20021;-77
2021/03/27 06:09:53;;;;;;;17.47;4.50;;;5.60;95.00;;;;;;4993677;28;20574;-79
2021/03/27 06:13:01;;;;;;;12.47;2.70;;;5.60;95.00;;;;;;5015511;28;20044;-79
2021/03/27 06:15:38;;;;;;;13.03;2.23;;;5.70;94.00;;;;;;5022627;28;20048;-79
2021/03/27 06:18:18;;;;;;;17.33;2.17;;;5.60;93.60;;;;;;5012405;28;20034;-79
2021/03/27 06:21:24;;;;;;;8.17;1.37;;;5.60;93.40;;;;;;5016741;28;20108;-79
2021/03/27 06:24:03;;;;;;;12.10;1.90;;;5.60;93.40;;;;;;5032964;28;20108;-78
2021/03/27 06:26:54;;;;;;;7.83;1.70;;;5.50;93.50;;;;;;5034009;28;20056;-78
2021/03/27 06:29:22;;;;;;;10.87;2.07;;;5.40;93.40;;;;;;5033018;28;20109;-78
2021/03/27 06:31:48;;;;;;;9.43;1.97;;;5.40;93.30;;;;;;5015106;28;20074;-78
2021/03/27 06:34:45;;;;;;;7.73;1.60;;;5.30;93.20;;;;;;5015881;28;20035;-78
2021/03/27 06:38:17;;;;;;;8.37;1.60;;;5.30;93.30;;;;;;5015784;28;20014;-78
2021/03/27 06:41:20;;;;;;;9.80;2.03;;;5.20;93.40;;;;;;4935383;29;20170;-78
2021/03/27 06:44:11;;;;;;;10.33;1.83;;;5.10;93.40;;;;;;4935314;29;20030;-78
2021/03/27 06:47:14;;;;;;;10.17;2.00;;;5.00;93.40;;;;;;5022391;28;20481;-78
2021/03/27 06:50:12;;;;;;;8.93;1.60;;;5.00;93.40;;;;;;5016657;28;20037;-77
2021/03/27 06:53:02;;;;;;;5.77;1.57;;;5.00;93.40;;;;;;5006161;28;20041;-77
2021/03/27 06:55:45;;;;;;;16.27;2.23;;;5.00;93.40;;;;;;5016307;28;20103;-78
2021/03/27 06:58:13;;;;;;;11.70;1.90;;;4.90;93.40;;;;;;5016310;28;20021;-77
2021/03/27 07:01:00;;;;;;;10.03;1.97;;;4.90;93.40;;;;;;5034146;28;20128;-79
2021/03/27 07:04:04;;;;;;;11.13;1.60;;;4.90;93.50;;;;;;5016896;28;20474;-78
2021/03/27 07:06:58;;;;;;;9.23;1.83;;;4.90;93.50;;;;;;5016869;28;20153;-78
2021/03/27 07:10:01;;;;;;;10.75;2.33;;;4.90;93.50;;;;;;4998088;28;20045;-78
2021/03/27 07:12:39;;;;;;;6.47;2.10;;;4.90;93.60;;;;;;5034163;28;20045;-78
2021/03/27 07:15:30;;;;;;;13.20;2.33;;;4.90;93.60;;;;;;5033726;28;20103;-79
2021/03/27 07:18:33;;;;;;;8.73;2.43;;;5.00;93.60;;;;;;5032481;28;20056;-79
2021/03/27 07:21:27;;;;;;;9.53;2.10;;;5.00;93.60;;;;;;5031414;28;20030;-78
2021/03/27 07:23:55;;;;;;;13.53;2.40;;;5.00;93.70;;;;;;5013748;28;20053;-79
2021/03/27 07:26:47;;;;;;;6.03;1.53;;;5.10;93.70;;;;;;5028360;28;20112;-78
2021/03/27 07:29:50;;;;;;;10.67;1.33;;;5.20;93.70;;;;;;5016140;28;20120;-78
2021/03/27 07:32:24;;;;;;;10.23;2.00;;;5.30;93.70;;;;;;5033838;28;20013;-78
2021/03/27 07:35:11;;;;;;;9.10;1.57;;;5.50;93.70;;;;;;5033980;28;20021;-78
2021/03/27 07:38:09;;;;;;;13.17;1.97;;;5.70;93.60;;;;;;5015968;28;20052;-78
2021/03/27 07:40:50;;;;;;;10.10;1.43;;;5.80;93.40;;;;;;5012888;28;20044;-78
2021/03/27 07:43:27;;;;;;;12.40;1.43;;;6.00;93.30;;;;;;5032484;28;20449;-77
2021/03/27 07:46:17;;;;;;;15.73;2.10;;;6.10;93.00;;;;;;5032520;28;20029;-78
2021/03/27 07:49:04;;;;;;;14.50;1.70;;;6.20;92.70;;;;;;5015741;28;20052;-76
2021/03/27 07:51:52;;;;;;;8.10;1.57;;;6.30;92.30;;;;;;5033479;28;20032;-77
2021/03/27 07:55:15;;;;;;;18.27;1.93;;;6.40;92.10;;;;;;5032786;28;20022;-77
2021/03/27 07:58:02;;;;;;;11.77;1.63;;;6.50;91.90;;;;;;5012844;28;20029;-77
2021/03/27 08:00:57;;;;;;;14.03;2.00;;;6.50;91.70;;;;;;5032070;28;20390;-77
2021/03/27 08:03:28;;;;;;;13.20;2.17;;;6.50;91.80;;;;;;5032404;28;20549;-78
2021/03/27 08:06:09;;;;;;;8.33;1.70;;;6.60;91.50;;;;;;5015695;28;20441;-78
2021/03/27 08:08:35;;;;;;;13.77;1.80;;;6.60;91.10;;;;;;5032751;28;20032;-80
2021/03/27 08:11:32;;;;;;;12.93;1.90;;;6.60;91.10;;;;;;5015661;28;20029;-79
2021/03/27 08:14:13;;;;;;;13.90;1.57;;;6.60;91.10;;;;;;5016530;28;20140;-77
2021/03/27 08:17:09;;;;;;;12.77;2.87;;;6.60;91.00;;;;;;5032667;28;20026;-76
2021/03/27 08:19:58;;;;;;;16.60;2.30;;;6.60;91.00;;;;;;4975998;28;20041;-78
2021/03/27 08:23:01;;;;;;;19.87;2.00;;;6.60;91.10;;;;;;5032888;28;20021;-78
2021/03/27 08:26:03;;;;;;;11.63;2.00;;;6.60;91.10;;;;;;5027364;28;20021;-77
2021/03/27 08:29:06;;;;;;;14.93;1.40;;;6.60;91.10;;;;;;5014735;28;20029;-77
2021/03/27 08:32:06;;;;;;;11.67;1.40;;;6.60;91.10;;;;;;5033016;28;20036;-78
2021/03/27 08:35:12;;;;;;;11.97;1.33;;;6.60;89.20;;;;;;5015341;28;20029;-78
2021/03/27 08:37:42;;;;;;;7.43;1.23;;;6.50;87.20;;;;;;5032919;28;20442;-78
2021/03/27 08:40:56;;;;;;;16.23;1.70;;;6.30;87.40;;;;;;5014952;28;20128;-79
2021/03/27 08:43:47;;;;;;;11.40;1.90;;;6.10;86.90;;;;;;4986647;28;20026;-78
2021/03/27 08:46:25;;;;;;;14.73;1.33;;;6.00;86.40;;;;;;5015082;28;20029;-77
2021/03/27 08:49:02;;;;;;;7.30;1.00;;;5.90;87.30;;;;;;5014899;28;20061;-79
2021/03/27 08:51:59;;;;;;;8.23;1.20;;;6.00;88.00;;;;;;5014988;28;20033;-79
2021/03/27 08:54:47;;;;;;;13.20;1.43;;;6.10;86.70;;;;;;5032232;28;20033;-77
2021/03/27 08:57:27;;;;;;;11.37;1.33;;;6.10;87.20;;;;;;4996275;28;20390;-79
2021/03/27 09:00:34;;;;;;;11.70;2.10;;;6.00;88.20;;;;;;5032596;28;20018;-78
2021/03/27 09:03:28;;;;;;;11.00;1.60;;;6.00;89.10;;;;;;5032755;28;20054;-78
2021/03/27 09:06:30;;;;;;;16.27;1.40;;;6.20;90.20;;;;;;5032358;28;20088;-78
2021/03/27 09:09:10;;;;;;;11.03;1.20;;;6.40;90.10;;;;;;5014996;28;20034;-77
2021/03/27 09:11:45;;;;;;;8.57;1.23;;;6.40;89.70;;;;;;5027803;28;20680;-78
2021/03/27 09:14:47;;;;;;;12.43;1.60;;;6.40;89.70;;;;;;5013351;28;20028;-78
2021/03/27 09:17:51;;;;;;;9.17;1.17;;;6.30;89.40;;;;;;4974786;28;20436;-78
2021/03/27 09:20:39;;;;;;;12.77;2.20;;;6.20;89.80;;;;;;5025874;28;20485;-77
2021/03/27 09:23:19;;;;;;;14.97;1.50;;;6.30;90.00;;;;;;5013132;28;20026;-76
2021/03/27 09:26:10;;;;;;;13.97;1.70;;;6.40;90.00;;;;;;5016548;28;20454;-77
2021/03/27 09:28:44;;;;;;;16.67;2.03;;;6.50;90.00;;;;;;5036253;28;20022;-77
2021/03/27 09:31:37;;;;;;;13.60;1.93;;;6.60;88.40;;;;;;5018326;28;20108;-77
2021/03/27 09:34:21;;;;;;;11.73;2.13;;;6.70;87.80;;;;;;5036380;28;20021;-78
2021/03/27 09:37:03;;;;;;;9.02;1.48;;;6.70;87.80;;;;;;5018408;28;20033;-78
2021/03/27 09:39:34;;;;;;;10.57;1.67;;;6.80;88.30;;;;;;5018118;28;20409;-78
2021/03/27 09:42:30;;;;;;;14.63;2.77;;;6.80;88.50;;;;;;5018762;28;20080;-78
2021/03/27 09:45:01;;;;;;;9.70;1.50;;;6.90;88.50;;;;;;5035784;28;20025;-78
2021/03/27 09:48:10;;;;;;;19.50;3.63;;;7.10;88.10;;;;;;5018178;28;20033;-78
2021/03/27 09:51:11;;;;;;;20.37;3.00;;;7.20;88.50;;;;;;5032601;28;20053;-77
2021/03/27 09:54:08;;;;;;;13.27;2.03;;;7.40;85.90;;;;;;5016562;28;20018;-78
2021/03/27 09:56:57;;;;;;;8.17;1.20;;;7.50;86.20;;;;;;5010067;28;20121;-78
2021/03/27 09:59:34;;;;;;;8.00;1.33;;;7.50;78.40;;;;;;5035660;28;20489;-78
2021/03/27 10:02:03;;;;;;;6.73;1.00;;;7.50;78.20;;;;;;5013750;28;20054;-78
2021/03/27 10:04:58;;;;;;;8.80;1.63;;;7.50;77.50;;;;;;5024775;28;20121;-77
2021/03/27 10:07:26;;;;;;;;;;;7.60;76.90;;;;;;5016778;28;20014;-78
2021/03/27 10:10:05;;;;;;;11.47;1.97;;;7.70;74.70;;;;;;5020827;28;20281;-78
2021/03/27 10:12:46;;;;;;;7.17;1.10;;;7.90;73.20;;;;;;5015879;28;20022;-78
2021/03/27 10:15:25;;;;;;;10.60;1.43;;;8.10;69.50;;;;;;5034922;28;20021;-78
2021/03/27 10:17:55;;;;;;;15.10;1.37;;;8.50;69.70;;;;;;5034731;28;20486;-78
2021/03/27 10:20:30;;;;;;;11.63;1.20;;;8.90;65.40;;;;;;5017104;28;20056;-78
2021/03/27 10:23:09;;;;;;;8.80;1.17;;;9.10;60.60;;;;;;5017094;28;20022;-79
2021/03/27 10:26:03;;;;;;;12.00;1.60;;;9.50;62.70;;;;;;5017288;28;20017;-78
2021/03/27 10:28:41;;;;;;;7.03;1.58;;;9.80;59.90;;;;;;5016880;28;20026;-77
2021/03/27 10:31:15;;;;;;;6.23;1.10;;;10.10;60.40;;;;;;5033699;28;20486;-77
2021/03/27 10:34:06;;;;;;;10.50;1.07;;;10.40;58.30;;;;;;5016492;28;20033;-78
2021/03/27 10:37:05;;;;;;;8.68;1.55;;;10.80;58.40;;;;;;5014080;28;20033;-76
2021/03/27 10:39:39;;;;;;;10.85;1.23;;;11.00;54.90;;;;;;4997606;28;20057;-78
2021/03/27 10:42:36;;;;;;;10.55;1.08;;;11.30;54.60;;;;;;5030017;28;20052;-78
2021/03/27 10:45:37;;;;;;;7.95;1.40;;;11.50;54.10;;;;;;5034130;28;20036;-80
2021/03/27 10:48:05;;;;;;;6.20;1.08;;;11.80;53.20;;;;;;5035100;28;20033;-79
2021/03/27 10:51:12;;;;;;;11.15;1.52;;;12.30;53.50;;;;;;5034905;28;20113;-81
2021/03/27 10:54:22;;;;;;;8.43;1.00;;;12.80;51.30;;;;;;4969471;28;20041;-81
2021/03/27 10:57:08;;;;;;;5.32;1.25;;;13.20;49.50;;;;;;5034420;28;20018;-84
2021/03/27 10:59:50;;;;;;;5.95;0.68;;;13.40;48.40;;;;;;5034405;28;20057;-82
2021/03/27 11:02:42;;;;;;;5.55;0.90;;;13.80;47.50;;;;;;5016385;28;20049;-83
2021/03/27 11:05:49;;;;;;;6.03;0.95;;;14.00;44.70;;;;;;5010903;28;20044;-82
2021/03/27 11:08:40;;;;;;;8.02;1.02;;;13.80;44.30;;;;;;5021931;28;20037;-80
2021/03/27 11:11:33;;;;;;;7.03;0.90;;;13.80;45.50;;;;;;5016647;28;20038;-82
2021/03/27 11:14:53;;;;;;;5.05;0.80;;;14.10;46.60;;;;;;5017644;28;20521;-82
2021/03/27 11:17:25;;;;;;;7.47;0.93;;;14.70;44.80;;;;;;4972828;28;20053;-83
2021/03/27 11:20:18;;;;;;;4.55;1.00;;;14.80;42.70;;;;;;5031717;28;20037;-83
2021/03/27 11:23:08;;;;;;;7.25;0.85;;;15.00;44.50;;;;;;5016619;28;20033;-83
2021/03/27 11:26:17;;;;;;;9.48;1.35;;;15.30;44.20;;;;;;5033825;28;20029;-84
2021/03/27 11:29:27;;;;;;;8.60;1.33;;;15.70;44.20;;;;;;4984418;28;20038;-83
2021/03/27 11:32:23;;;;;;;9.45;1.08;;;15.80;42.70;;;;;;5021819;28;20037;-82
2021/03/27 11:35:02;;;;;;;7.57;1.17;;;15.90;43.00;;;;;;4985116;28;20490;-83
2021/03/27 11:37:32;;;;;;;6.03;1.10;;;15.40;42.00;;;;;;5033074;28;20017;-82
2021/03/27 11:40:19;;;;;;;7.72;1.42;;;14.70;42.50;;;;;;5011531;28;20048;-82
2021/03/27 11:43:21;;;;;;;9.98;1.05;;;14.00;44.10;;;;;;5029837;28;20022;-82
2021/03/27 11:45:58;;;;;;;7.78;1.40;;;13.10;45.50;;;;;;5030987;28;20488;-80
2021/03/27 11:48:34;;;;;;;7.63;1.25;;;12.30;46.50;;;;;;5015126;28;20084;-83
2021/03/27 11:51:27;;;;;;;7.50;1.08;;;11.70;48.80;;;;;;5012926;28;20068;-82
2021/03/27 11:54:08;;;;;;;6.07;0.70;;;11.20;51.50;;;;;;5033257;28;20124;-82
2021/03/27 11:56:44;;;;;;;8.77;1.33;;;10.90;53.50;;;;;;5032308;28;20022;-83
2021/03/27 12:02:46;;;;;;;8.67;1.90;;;10.50;55.10;;;;;;5033447;28;20516;-82
2021/03/27 12:05:21;;;;;;;8.10;1.63;;;10.40;55.40;;;;;;5016147;28;20052;-82
2021/03/27 12:08:18;;;;;;;9.67;1.47;;;10.40;55.60;;;;;;5015664;28;20056;-81
2021/03/27 12:11:14;;;;;;;6.90;1.20;;;10.40;55.30;;;;;;5033085;28;20474;-81
2021/03/27 12:13:48;;;;;;;11.83;1.30;;;10.30;55.80;;;;;;5032897;28;20033;-82
2021/03/27 12:16:23;;;;;;;11.40;2.20;;;10.30;55.80;;;;;;5015149;28;20033;-83
2021/03/27 12:19:11;;;;;;;8.67;1.30;;;10.20;56.20;;;;;;5015519;28;20048;-82
2021/03/27 12:21:51;;;;;;;15.30;1.80;;;10.10;56.80;;;;;;5015261;28;20410;-82
2021/03/27 12:24:40;;;;;;;9.67;1.83;;;9.90;58.00;;;;;;5032395;28;20032;-81
2021/03/27 12:27:19;;;;;;;13.67;1.83;;;9.80;59.80;;;;;;5030602;28;20390;-83
2021/03/27 12:30:07;;;;;;;12.83;2.03;;;9.60;61.30;;;;;;5011679;28;20041;-82
2021/03/27 12:32:58;;;;;;;11.17;1.77;;;9.40;63.10;;;;;;4994440;28;20055;-81
2021/03/27 12:35:54;;;;;;;10.77;1.60;;;9.40;64.70;;;;;;5033448;28;20112;-80
2021/03/27 12:38:37;;;;;;;10.03;1.97;;;9.40;64.60;;;;;;5014953;28;20101;-80
2021/03/27 12:41:15;;;;;;;13.65;1.80;;;9.40;64.20;;;;;;5015259;28;20037;-81
2021/03/27 12:43:47;;;;;;;11.83;1.70;;;9.50;66.50;;;;;;5015242;28;20117;-81
2021/03/27 12:46:32;;;;;;;10.83;1.93;;;10.10;66.40;;;;;;5015058;28;20120;-81
2021/03/27 12:49:06;;;;;;;8.57;1.17;;;10.70;64.70;;;;;;5032662;28;20034;-81
2021/03/27 12:51:31;;;;;;;;;;;11.10;62.50;;;;;;5015632;28;20035;-81
2021/03/27 12:54:03;;;;;;;9.87;1.67;;;11.20;59.20;;;;;;5019311;28;19905;-82
2021/03/27 12:57:10;;;;;;;12.80;1.60;;;11.10;59.00;;;;;;5021489;28;20032;-81
2021/03/27 12:59:39;;;;;;;16.33;1.80;;;11.00;58.60;;;;;;4977402;28;20460;-82
2021/03/27 13:02:42;;;;;;;13.60;2.77;;;10.70;59.30;;;;;;4977399;28;20546;-82
2021/03/27 13:05:39;;;;;;;12.67;1.93;;;10.30;60.50;;;;;;5021510;28;20099;-81
2021/03/27 13:08:07;;;;;;;14.17;1.53;;;10.00;64.90;;;;;;5038972;28;20018;-82
2021/03/27 13:10:54;;;;;;;;;;;;;;;;;;;;;
2021/03/27 13:13:51;;;;;;;13.37;2.27;;;9.40;69.50;;;;;;5042059;28;20489;-88
2021/03/27 13:16:43;;;;;;;11.27;2.13;;;9.30;69.40;;;;;;5024172;28;20108;-86
2021/03/27 13:19:28;;;;;;;12.17;1.47;;;9.20;69.90;;;;;;5022878;28;20021;-87
2021/03/27 13:22:05;;;;;;;;;;;9.50;70.60;;;;;;5039317;28;20413;-89
2021/03/27 13:24:33;;;;;;;10.17;1.37;;;9.70;67.80;;;;;;5021092;28;19909;-88
2021/03/27 13:27:13;;;;;;;17.63;2.63;;;9.70;65.90;;;;;;5039379;28;20028;-88
2021/03/27 13:29:47;;;;;;;13.37;1.93;;;9.60;65.70;;;;;;5021909;28;20037;-86
2021/03/27 13:32:21;;;;;;;10.95;1.25;;;9.80;65.70;;;;;;5021926;28;20034;-88
2021/03/27 13:35:18;;;;;;;11.40;1.50;;;10.50;66.50;;;;;;5022207;28;20062;-85
2021/03/27 13:38:09;;;;;;;15.02;2.15;;;11.50;66.00;;;;;;5022158;28;20059;-89
2021/03/27 13:40:42;;;;;;;9.75;1.50;;;12.50;58.10;;;;;;5022021;28;20109;-87
2021/03/27 13:47:02;;;;;;;10.15;1.35;;;13.80;53.40;;;;;;4976404;28;20470;-89
2021/03/27 13:53:10;;;;;;;11.10;1.33;;;14.00;51.00;;;;;;5036096;28;20481;-86
2021/03/27 13:56:22;;;;;;;9.65;1.58;;;13.80;51.40;;;;;;5022676;28;20540;-88
2021/03/27 13:58:53;;;;;;;11.20;1.75;;;13.50;51.00;;;;;;5039265;28;20478;-87
2021/03/27 14:01:33;;;;;;;12.88;1.73;;;13.00;51.70;;;;;;5022056;28;20529;-87
2021/03/27 14:04:16;;;;;;;14.35;1.67;;;12.80;52.50;;;;;;5021727;28;20048;-88
2021/03/27 14:07:01;;;;;;;10.88;1.80;;;12.60;51.90;;;;;;5018727;28;20068;-88
2021/03/27 14:09:50;;;;;;;12.63;1.98;;;12.70;52.60;;;;;;5019236;28;20041;-87
2021/03/27 14:12:31;;;;;;;11.98;1.63;;;12.70;51.70;;;;;;5019442;28;20037;-88
2021/03/27 14:15:03;;;;;;;14.20;1.80;;;12.50;50.30;;;;;;5005258;28;20028;-86
2021/03/27 14:17:50;;;;;;;11.48;2.22;;;12.50;52.20;;;;;;5015610;28;20029;-89
2021/03/27 14:20:40;;;;;;;10.50;1.45;;;13.10;52.10;;;;;;5018618;28;20481;-88
2021/03/27 14:23:32;;;;;;;13.30;1.90;;;13.80;51.10;;;;;;5018932;28;20037;-89
2021/03/27 14:26:14;;;;;;;9.68;1.60;;;14.30;50.70;;;;;;5036574;28;20036;-88
2021/03/27 14:28:51;;;;;;;9.07;1.85;;;14.40;49.30;;;;;;5017809;28;20021;-86
2021/03/27 14:31:44;;;;;;;10.18;1.48;;;14.40;48.40;;;;;;5018486;28;20049;-87
2021/03/27 14:34:21;;;;;;;9.40;1.65;;;14.40;46.20;;;;;;5018539;28;20121;-87